This is the latest recevied weather packets stored in our database for station/object W4OA. If no packets are shown the sender has not sent any weather packets the latest 10 day(s).
| Time | Temp. | Humidity | Pressure | Rain* | Wind** | Luminosity | Snow |
|---|---|---|---|---|---|---|---|
| 1777689898 | 13.33° C | 93% | 1008 hPa | 0 mm | - | 0 W/m² | - |
| 1777689598 | 13.33° C | 93% | 1008 hPa | 0 mm | - | 0 W/m² | - |
| 1777689299 | 13.33° C | 93% | 1008 hPa | 0 mm | - | 0 W/m² | - |
| 1777688998 | 13.33° C | 93% | 1008 hPa | 0 mm | - | 0 W/m² | - |
| 1777688698 | 13.33° C | 93% | 1007 hPa | 0 mm | - | 0 W/m² | - |
| 1777688398 | 13.33° C | 93% | 1008 hPa | 0 mm | - | 0 W/m² | - |
| 1777687798 | 13.33° C | 93% | 1008 hPa | 0 mm | - | 0 W/m² | - |
| 1777672498 | 17.78° C | 68% | 1006 hPa | 0 mm | - | 0 W/m² | - |
| 1777670098 | 17.22° C | 72% | 1006 hPa | 0 mm | - | 0 W/m² | - |
| 1777669499 | 17.22° C | 72% | 1006 hPa | 0 mm | - | 0 W/m² | - |
| 1777669199 | 17.22° C | 71% | 1007 hPa | 0 mm | - | 0 W/m² | - |
| 1777667398 | 17.78° C | 69% | 1007 hPa | 0 mm | - | 0 W/m² | - |
| 1777666798 | 17.78° C | 68% | 1007 hPa | 0 mm | - | 0 W/m² | - |
| 1777665899 | 17.78° C | 71% | 1007 hPa | 0 mm | - | 0 W/m² | - |
| 1777665598 | 17.78° C | 70% | 1007 hPa | 0 mm | - | 0 W/m² | - |
| 1777664999 | 17.78° C | 69% | 1007 hPa | 0 mm | - | 0 W/m² | - |
| 1777664099 | 17.78° C | 68% | 1007 hPa | 0 mm | - | 0 W/m² | - |
| 1777663198 | 18.33° C | 69% | 1007 hPa | 0 mm | - | 0 W/m² | - |
| 1777661999 | 18.89° C | 69% | 1008 hPa | 0 mm | - | 0 W/m² | - |
| 1777659298 | 18.33° C | 63% | 1008 hPa | 0 mm | - | 0 W/m² | - |
| 1777657799 | 18.33° C | 66% | 1008 hPa | 0 mm | - | 0 W/m² | - |
| 1777655099 | 19.44° C | 64% | 1008 hPa | 0 mm | - | 0 W/m² | - |
| 1777653299 | 18.33° C | 71% | 1008 hPa | 0 mm | - | 0 W/m² | - |
| 1777652098 | 18.33° C | 74% | 1008 hPa | 0 mm | - | 0 W/m² | - |
| 1777651799 | 18.33° C | 72% | 1008 hPa | 0 mm | - | 0 W/m² | - |
* Rain latest hour (hover to see other rain measurements)
** Current wind speed in m/s (hover to see current wind gust speed)